Time;durP1;ratioP1;P1;durP2;ratioP2;P2;SDS_P1;SDS_P2;PMS_P1;PMS_P2;Temp;Humidity;BMP_temperature;BMP_pressure;BME280_temperature;BME280_humidity;BME280_pressure;Samples;Min_cycle;Max_cycle;Signal;HPM_P1;HPM_P2
2022/06/05 00:00:18;;;;;;;19.92;11.77;;;;;;;13.76;68.36;99982.56;6159970;23;20287;-80
2022/06/05 00:03:22;;;;;;;21.88;11.32;;;;;;;13.77;68.30;99973.81;6184376;23;20023;-83
2022/06/05 00:06:03;;;;;;;25.23;11.02;;;;;;;13.77;68.39;99967.72;6184303;23;20027;-80
2022/06/05 00:08:46;;;;;;;16.38;10.60;;;;;;;13.76;68.49;99971.22;6185987;23;20013;-81
2022/06/05 00:11:13;;;;;;;21.73;10.75;;;;;;;13.77;68.44;99975.56;6184004;23;20463;-80
2022/06/05 00:13:51;;;;;;;19.52;10.88;;;;;;;13.75;68.42;99964.25;6183310;23;20021;-81
2022/06/05 00:16:22;;;;;;;21.80;10.98;;;;;;;13.76;68.37;99966.88;6183600;23;20021;-81
2022/06/05 00:18:48;;;;;;;24.77;11.85;;;;;;;13.74;68.61;99967.75;6159174;23;20371;-83
2022/06/05 00:21:14;;;;;;;24.27;12.07;;;;;;;13.73;68.51;99966.91;6184676;23;20039;-79
2022/06/05 00:23:41;;;;;;;24.58;11.10;;;;;;;13.69;68.67;99960.88;6190846;23;20021;-79
2022/06/05 00:26:23;;;;;;;29.02;11.95;;;;;;;13.67;68.65;99953.94;6190751;23;20020;-84
2022/06/05 00:28:59;;;;;;;16.60;10.52;;;;;;;13.63;68.58;99953.16;6195866;23;20511;-80
2022/06/05 00:31:48;;;;;;;21.75;11.52;;;;;;;13.60;68.72;99945.38;6200458;23;20045;-79
2022/06/05 00:34:14;;;;;;;19.63;11.02;;;;;;;13.63;68.91;99945.31;6199282;23;20021;-80
2022/06/05 00:36:48;;;;;;;19.20;11.20;;;;;;;13.45;68.85;99919.53;6174867;23;20020;-80
2022/06/05 00:39:26;;;;;;;23.55;11.48;;;;;;;13.61;68.91;99936.63;6178095;23;20609;-81
2022/06/05 00:42:04;;;;;;;19.23;11.18;;;;;;;13.59;68.86;99935.81;6203567;23;20028;-81
2022/06/05 00:44:37;;;;;;;16.40;10.38;;;;;;;13.58;69.04;99930.59;6196975;23;20068;-81
2022/06/05 00:47:06;;;;;;;21.90;11.88;;;;;;;13.53;68.67;99928.94;6199989;23;20009;-79
2022/06/05 00:49:37;;;;;;;18.65;11.73;;;;;;;13.46;68.97;99924.72;6203448;23;20016;-80
2022/06/05 00:52:07;;;;;;;23.10;11.73;;;;;;;13.34;69.19;99917.09;6204376;23;20017;-78
2022/06/05 00:54:34;;;;;;;19.65;11.73;;;;;;;13.41;69.14;99929.16;6180849;23;20062;-78
2022/06/05 00:57:05;;;;;;;19.42;10.88;;;;;;;13.28;69.06;99897.13;6204279;23;20017;-78
2022/06/05 00:59:31;;;;;;;17.77;11.17;;;;;;;13.40;69.38;99919.56;6201942;23;20043;-79
2022/06/05 01:01:58;;;;;;;23.52;11.20;;;;;;;13.18;69.31;99885.13;6195910;23;20021;-81
2022/06/05 01:04:25;;;;;;;19.80;10.52;;;;;;;13.16;69.25;99887.75;6162134;23;20362;-82
2022/06/05 01:06:52;;;;;;;22.23;11.80;;;;;;;13.36;69.41;99917.88;6186742;23;20147;-81
2022/06/05 01:09:19;;;;;;;18.33;10.85;;;;;;;13.21;69.56;99895.53;6187844;23;20067;-81
2022/06/05 01:11:57;;;;;;;21.25;11.13;;;;;;;13.35;69.73;99918.81;6186734;23;20358;-82
2022/06/05 01:14:50;;;;;;;18.42;11.02;;;;;;;13.35;69.68;99919.66;6187032;23;20017;-81
2022/06/05 01:17:40;;;;;;;23.95;10.77;;;;;;;13.35;69.47;99914.44;6186596;23;20100;-81
2022/06/05 01:20:11;;;;;;;22.55;9.88;;;;;;;13.34;69.58;99906.63;6217433;23;20020;-81
2022/06/05 01:22:48;;;;;;;25.25;10.00;;;;;;;13.35;69.71;99918.81;6166035;23;20071;-82
2022/06/05 01:25:36;;;;;;;19.25;10.95;;;;;;;13.33;69.74;99916.19;6165892;23;20049;-82
2022/06/05 01:28:16;;;;;;;20.67;11.23;;;;;;;13.18;69.71;99885.13;6165743;23;20050;-81
2022/06/05 01:31:22;;;;;;;22.02;10.98;;;;;;;13.35;69.70;99908.34;6165168;23;20028;-82
2022/06/05 01:34:00;;;;;;;18.77;10.48;;;;;;;13.36;69.88;99910.94;6171055;23;20016;-81
2022/06/05 01:36:39;;;;;;;19.73;10.20;;;;;;;13.35;69.83;99893.53;6215981;23;20154;-81
2022/06/05 01:39:08;;;;;;;18.88;10.77;;;;;;;13.36;69.89;99889.13;6180789;23;20119;-80
2022/06/05 01:41:44;;;;;;;19.42;10.85;;;;;;;13.50;69.88;99904.59;6194740;23;20021;-82
2022/06/05 01:44:35;;;;;;;16.23;10.57;;;;;;;13.58;69.91;99900.09;6167922;23;20016;-81
2022/06/05 01:47:07;;;;;;;19.75;10.13;;;;;;;13.60;69.85;99887.84;6152498;23;20080;-78
2022/06/05 01:49:44;;;;;;;;;;;;;;;13.71;69.60;99896.31;6178071;23;20021;-80
2022/06/05 01:52:24;;;;;;;18.98;10.23;;;;;;;13.71;69.48;99892.88;6194770;23;19919;-80
2022/06/05 01:54:59;;;;;;;16.90;10.32;;;;;;;13.78;69.28;99901.44;6170502;23;20040;-80
2022/06/05 01:57:26;;;;;;;21.92;10.30;;;;;;;13.78;69.20;99893.59;6222239;23;20012;-82
2022/06/05 02:00:22;;;;;;;17.90;9.68;;;;;;;13.68;69.15;99875.47;6190565;23;20029;-81
2022/06/05 02:02:57;;;;;;;22.35;9.60;;;;;;;13.77;68.98;99884.03;6188645;23;20445;-80
2022/06/05 02:05:31;;;;;;;14.18;9.63;;;;;;;13.69;68.83;99881.56;6189746;23;20146;-80
2022/06/05 02:08:06;;;;;;;19.73;10.23;;;;;;;13.74;68.54;99871.88;6188744;23;20472;-82
2022/06/05 02:10:44;;;;;;;30.85;11.70;;;;;;;13.74;68.67;99879.72;6190700;23;20016;-80
2022/06/05 02:13:10;;;;;;;30.38;11.52;;;;;;;13.75;68.47;99871.00;6217631;23;20016;-80
2022/06/05 02:15:37;;;;;;;21.48;10.55;;;;;;;13.85;68.43;99872.50;6218279;23;20024;-80
2022/06/05 02:18:04;;;;;;;15.10;10.63;;;;;;;13.84;68.48;99875.16;6177762;23;20031;-79
2022/06/05 02:20:30;;;;;;;17.38;10.60;;;;;;;13.91;68.57;99886.34;6224269;23;20032;-79
2022/06/05 02:22:57;;;;;;;23.08;10.75;;;;;;;13.93;68.87;99882.81;6203195;23;20028;-79
2022/06/05 02:25:26;;;;;;;20.95;11.23;;;;;;;13.92;68.48;99872.38;6231930;23;20032;-79
2022/06/05 02:28:01;;;;;;;22.95;11.13;;;;;;;14.00;68.55;99876.56;6181898;23;20016;-81
2022/06/05 02:30:40;;;;;;;17.77;10.55;;;;;;;13.97;68.66;99871.38;6187136;23;20045;-80
2022/06/05 02:33:11;;;;;;;14.25;10.50;;;;;;;14.03;68.63;99882.63;6215915;23;20023;-81
2022/06/05 02:35:54;;;;;;;25.23;11.70;;;;;;;13.84;68.53;99865.56;6241748;23;20004;-81
2022/06/05 02:38:38;;;;;;;21.48;10.60;;;;;;;13.89;68.32;99882.91;6241157;23;20244;-82
2022/06/05 02:41:32;;;;;;;19.58;11.20;;;;;;;13.93;68.69;99881.97;6210587;23;20020;-81
2022/06/05 02:44:32;;;;;;;18.83;10.50;;;;;;;13.90;68.56;99867.19;6195425;23;20021;-81
2022/06/05 02:47:11;;;;;;;19.55;10.05;;;;;;;14.06;68.35;99875.56;6191983;23;20047;-82
2022/06/05 02:49:59;;;;;;;18.52;10.18;;;;;;;14.15;68.35;99883.22;6168673;23;20106;-80
2022/06/05 02:52:30;;;;;;;20.42;10.48;;;;;;;14.12;68.27;99862.34;6169837;23;20024;-79
2022/06/05 02:55:04;;;;;;;18.02;10.70;;;;;;;14.29;68.46;99875.06;6216152;23;20598;-80
2022/06/05 02:57:31;;;;;;;15.73;10.20;;;;;;;14.45;68.21;99879.91;6163959;23;20023;-82
2022/06/05 02:59:57;;;;;;;17.77;10.23;;;;;;;14.56;67.89;99879.66;6188759;23;20024;-81
2022/06/05 03:05:09;;;;;;;17.98;11.00;;;;;;;14.57;67.65;99852.59;6215049;23;20020;-81
2022/06/05 03:07:35;;;;;;;19.15;11.00;;;;;;;14.67;67.31;99854.09;6188725;23;20458;-80
2022/06/05 03:10:02;;;;;;;27.48;14.70;;;;;;;14.91;67.19;99860.47;6188398;23;20466;-80
2022/06/05 03:12:29;;;;;;;18.15;12.98;;;;;;;15.04;67.12;99861.03;6188945;23;20020;-83
2022/06/05 03:15:00;;;;;;;14.00;9.95;;;;;;;15.14;66.83;99845.03;6215116;23;20016;-80
2022/06/05 03:17:30;;;;;;;15.93;10.40;;;;;;;15.26;66.71;99855.22;6188123;23;20062;-80
2022/06/05 03:19:57;;;;;;;16.75;10.00;;;;;;;15.08;66.44;99798.91;6139023;23;20016;-82
2022/06/05 03:22:25;;;;;;;15.13;8.82;;;;;;;15.64;66.04;99850.63;6215003;23;20082;-83
2022/06/05 03:24:52;;;;;;;19.80;9.90;;;;;;;15.75;65.75;99852.09;6188185;23;20076;-81
2022/06/05 03:27:20;;;;;;;20.30;9.35;;;;;;;15.85;65.29;99845.66;6215329;23;20407;-80
2022/06/05 03:29:46;;;;;;;18.33;9.90;;;;;;;16.03;65.14;99836.41;6165470;23;20021;-80
2022/06/05 03:32:13;;;;;;;23.83;10.25;;;;;;;16.05;64.66;99803.09;6199101;23;20024;-80
2022/06/05 03:34:39;;;;;;;15.77;9.93;;;;;;;16.26;64.46;99819.91;6174888;23;20107;-81
2022/06/05 03:37:05;;;;;;;23.67;10.57;;;;;;;16.54;63.74;99832.16;6227445;23;20358;-80
2022/06/05 03:39:33;;;;;;;17.90;9.57;;;;;;;16.78;63.43;99832.25;6175334;23;20692;-81
2022/06/05 03:42:00;;;;;;;15.30;9.48;;;;;;;17.07;63.16;99829.53;6188001;23;20066;-80
2022/06/05 03:44:27;;;;;;;18.77;9.00;;;;;;;17.50;62.91;99822.72;6188362;23;20470;-81
2022/06/05 03:46:56;;;;;;;17.38;9.45;;;;;;;17.70;62.06;99806.19;6215139;23;20016;-80
2022/06/05 03:49:22;;;;;;;14.82;8.93;;;;;;;17.70;61.49;99766.72;6216142;23;20012;-82
2022/06/05 03:51:48;;;;;;;13.25;8.93;;;;;;;18.05;60.70;99788.19;6193781;23;20028;-80
2022/06/05 03:54:16;;;;;;;14.48;8.73;;;;;;;18.39;60.67;99804.38;6204163;23;20020;-82
2022/06/05 03:56:42;;;;;;;16.23;7.95;;;;;;;18.56;59.81;99800.19;6174782;23;20036;-77
2022/06/05 03:59:12;;;;;;;16.48;8.25;;;;;;;18.66;59.00;99798.91;6177362;23;20074;-80
2022/06/05 04:01:38;;;;;;;16.15;8.38;;;;;;;18.70;58.73;99796.97;6173593;23;20471;-80
2022/06/05 04:04:04;;;;;;;18.65;8.07;;;;;;;18.67;58.41;99792.69;6218654;23;20021;-81
2022/06/05 04:06:31;;;;;;;15.80;8.60;;;;;;;18.78;57.79;99797.50;6216346;23;20021;-81
2022/06/05 04:09:00;;;;;;;15.40;7.88;;;;;;;19.11;57.67;99795.22;6164738;23;20016;-80
2022/06/05 04:11:28;;;;;;;16.05;7.60;;;;;;;19.39;56.93;99786.06;6165204;23;20458;-83
2022/06/05 04:13:55;;;;;;;15.52;6.97;;;;;;;19.80;56.23;99797.41;6190593;23;20147;-82
2022/06/05 04:16:24;;;;;;;12.18;6.82;;;;;;;19.78;55.59;99744.66;6165689;23;20020;-80
2022/06/05 04:18:51;;;;;;;13.88;7.13;;;;;;;20.20;55.22;99774.38;6192498;23;20016;-81
2022/06/05 04:21:21;;;;;;;11.68;6.78;;;;;;;20.28;54.33;99756.38;6164554;23;20044;-80
2022/06/05 04:23:48;;;;;;;12.25;6.35;;;;;;;20.49;53.23;99771.19;6192872;23;20020;-80
2022/06/05 04:26:22;;;;;;;11.57;6.00;;;;;;;20.39;52.61;99762.88;6221853;23;20339;-79
2022/06/05 04:28:49;;;;;;;14.20;6.72;;;;;;;20.31;52.30;99772.03;6221173;23;20013;-81
2022/06/05 04:31:20;;;;;;;14.70;6.15;;;;;;;20.11;51.97;99767.75;6224139;23;20385;-80
2022/06/05 04:33:51;;;;;;;13.23;5.68;;;;;;;20.11;51.69;99774.81;6172673;23;20032;-80
2022/06/05 04:36:18;;;;;;;14.82;5.78;;;;;;;20.09;51.48;99771.38;6194191;23;20597;-81
2022/06/05 04:38:44;;;;;;;17.42;6.10;;;;;;;20.09;51.48;99777.53;6190646;23;20091;-82
2022/06/05 04:41:12;;;;;;;15.70;6.40;;;;;;;20.13;51.41;99779.09;6218264;23;20031;-82
2022/06/05 04:43:38;;;;;;;10.23;5.97;;;;;;;19.93;50.99;99677.09;6190353;23;20393;-81
2022/06/05 04:46:06;;;;;;;13.77;6.00;;;;;;;20.63;50.02;99726.44;6191486;23;20489;-81
2022/06/05 04:48:32;;;;;;;12.60;5.70;;;;;;;20.78;49.65;99732.72;6220706;23;20051;-81
2022/06/05 04:51:02;;;;;;;10.38;5.20;;;;;;;20.43;49.07;99672.78;6172811;23;20481;-80
2022/06/05 04:53:28;;;;;;;11.40;5.57;;;;;;;20.97;48.38;99742.31;6197812;23;20071;-83
2022/06/05 04:55:58;;;;;;;10.95;6.05;;;;;;;20.93;48.64;99725.78;6190570;23;20493;-83
2022/06/05 04:58:24;;;;;;;12.10;6.35;;;;;;;21.33;47.78;99780.97;6191842;23;20028;-82
2022/06/05 05:00:50;;;;;;;12.60;6.65;;;;;;;21.04;47.68;99767.50;6165257;23;20020;-79
2022/06/05 05:03:17;;;;;;;17.08;7.15;;;;;;;20.52;47.91;99683.84;6164275;23;20071;-81
2022/06/05 05:05:44;;;;;;;18.23;7.35;;;;;;;21.09;48.02;99780.47;6189460;23;20095;-81
2022/06/05 05:08:13;;;;;;;12.73;7.13;;;;;;;21.06;48.63;99785.03;6167692;23;20012;-81
2022/06/05 05:10:45;;;;;;;10.95;6.00;;;;;;;20.83;48.09;99753.66;6191718;23;20501;-82
2022/06/05 05:13:16;;;;;;;7.00;5.30;;;;;;;20.25;48.41;99676.41;6143316;23;20027;-82
2022/06/05 05:16:00;;;;;;;9.40;5.30;;;;;;;20.58;47.61;99760.16;6170596;23;20023;-79
2022/06/05 05:18:43;;;;;;;8.68;4.40;;;;;;;19.76;47.57;99712.19;6221372;23;20110;-81
2022/06/05 05:21:28;;;;;;;13.65;5.38;;;;;;;19.90;47.44;99811.03;6199392;23;20023;-80
2022/06/05 05:23:57;;;;;;;10.75;5.20;;;;;;;19.22;48.09;99772.75;6220491;23;20017;-80
2022/06/05 05:26:41;;;;;;;8.13;5.65;;;;;;;19.05;48.54;99794.63;6191312;23;20028;-79
2022/06/05 05:29:56;;;;;;;10.00;5.00;;;;;;;18.58;49.05;99748.28;6201791;23;20016;-81
2022/06/05 05:32:26;;;;;;;23.00;5.45;;;;;;;18.40;49.03;99756.06;6165427;23;20362;-81
2022/06/05 05:34:52;;;;;;;11.75;5.18;;;;;;;18.69;49.19;99859.38;6190200;23;20103;-80
2022/06/05 05:37:19;;;;;;;7.82;4.57;;;;;;;18.36;49.81;99862.47;6190725;23;20146;-81
2022/06/05 05:42:32;;;;;;;9.18;4.22;;;;;;;17.77;51.24;99873.44;6217114;23;20055;-81
2022/06/05 05:45:08;;;;;;;9.80;4.53;;;;;;;17.18;51.93;99827.41;6191803;23;20016;-80
2022/06/05 05:47:46;;;;;;;6.90;4.40;;;;;;;17.17;53.12;99842.31;6143631;23;20336;-81
2022/06/05 05:50:18;;;;;;;8.10;4.38;;;;;;;16.76;53.59;99768.38;6167467;23;20485;-80
2022/06/05 05:52:46;;;;;;;5.38;4.22;;;;;;;17.27;53.88;99868.28;6164691;23;20095;-80
2022/06/05 05:55:18;;;;;;;6.32;4.45;;;;;;;17.30;54.33;99883.97;6190260;23;20024;-78
2022/06/05 05:57:46;;;;;;;9.13;4.53;;;;;;;17.23;54.69;99885.06;6216642;23;20024;-81
2022/06/05 06:00:25;;;;;;;10.57;4.90;;;;;;;16.96;55.17;99849.19;6165178;23;20027;-79
2022/06/05 06:03:01;;;;;;;;;;;;;;;17.05;55.59;99879.56;6169914;23;20090;-83
2022/06/05 06:05:34;;;;;;;5.72;4.15;;;;;;;16.49;55.45;99810.44;6148076;23;19943;-82
2022/06/05 06:08:00;;;;;;;4.82;3.75;;;;;;;16.47;55.58;99859.53;6196496;23;20355;-81
2022/06/05 06:10:29;;;;;;;6.93;3.88;;;;;;;16.34;57.18;99866.09;6173026;23;20017;-83
2022/06/05 06:13:05;;;;;;;8.27;3.80;;;;;;;15.98;58.00;99824.34;6228106;23;20047;-81
2022/06/05 06:15:34;;;;;;;6.63;3.78;;;;;;;15.61;58.66;99772.03;6158298;23;20016;-82
2022/06/05 06:18:21;;;;;;;6.45;4.00;;;;;;;15.72;59.27;99802.34;6233158;23;20047;-81
2022/06/05 06:20:48;;;;;;;4.47;3.80;;;;;;;15.85;60.38;99797.59;6206535;23;20024;-79
2022/06/05 06:23:17;;;;;;;5.45;3.58;;;;;;;15.19;61.08;99719.97;6206697;23;20024;-81
2022/06/05 06:25:43;;;;;;;5.28;3.35;;;;;;;15.79;61.87;99820.47;6173914;23;20016;-81
2022/06/05 06:28:18;;;;;;;8.38;3.60;;;;;;;15.79;62.39;99832.72;6220190;23;20040;-79
2022/06/05 06:30:49;;;;;;;4.65;3.95;;;;;;;15.64;63.31;99803.44;6147342;23;20090;-83
2022/06/05 06:33:15;;;;;;;6.18;3.83;;;;;;;15.82;63.85;99828.25;6143358;23;20521;-80
2022/06/05 06:35:42;;;;;;;20.02;14.90;;;;;;;15.80;64.15;99792.47;6170494;23;20017;-82
2022/06/05 06:38:08;;;;;;;33.88;23.42;;;;;;;16.04;64.62;99774.25;6147047;23;20020;-79
2022/06/05 06:40:35;;;;;;;19.95;15.98;;;;;;;16.30;65.03;99772.56;6147442;23;20017;-80
2022/06/05 06:43:03;;;;;;;19.42;14.75;;;;;;;16.91;65.32;99721.44;6199457;23;20016;-81
2022/06/05 06:45:29;;;;;;;12.80;8.98;;;;;;;19.75;66.98;99736.88;6198033;23;20026;-80
2022/06/05 06:48:21;;;;;;;9.07;5.97;;;;;;;22.96;62.56;99685.06;6196723;23;20111;-80
2022/06/05 06:50:59;;;;;;;9.00;7.75;;;;;;;26.47;55.67;99762.28;6171436;23;20020;-79
2022/06/05 06:53:33;;;;;;;18.42;15.10;;;;;;;28.16;50.12;99722.22;6168415;23;20023;-80
2022/06/05 06:56:17;;;;;;;19.35;16.83;;;;;;;30.47;46.02;99754.72;6194753;23;20104;-81
2022/06/05 06:58:54;;;;;;;7.75;7.03;;;;;;;32.18;40.64;99770.63;6194342;23;20107;-79
2022/06/05 07:01:24;;;;;;;8.80;5.15;;;;;;;33.47;36.55;99759.22;6196222;23;20016;-83
2022/06/05 07:08:29;;;;;;;9.07;6.82;;;;;;;36.31;31.45;99753.78;6072253;23;20021;-83
2022/06/05 07:11:20;;;;;;;6.53;5.90;;;;;;;37.42;29.49;99728.66;6037528;23;20046;-81
2022/06/05 07:14:03;;;;;;;11.20;10.13;;;;;;;38.38;27.43;99719.41;6196122;23;20020;-83
2022/06/05 07:17:00;;;;;;;6.13;3.97;;;;;;;38.93;25.40;99701.56;6220789;23;20017;-85
2022/06/05 07:19:32;;;;;;;4.40;3.80;;;;;;;40.12;24.96;99745.63;6171832;23;20048;-80
2022/06/05 07:21:59;;;;;;;5.65;3.45;;;;;;;40.65;23.75;99768.50;6160413;23;20016;-77
2022/06/05 07:24:26;;;;;;;3.55;3.25;;;;;;;41.79;22.29;99764.50;6166741;23;20017;-83
2022/06/05 07:27:25;;;;;;;3.80;2.60;;;;;;;41.35;21.02;99767.88;6159543;23;20016;-82
2022/06/05 07:30:13;;;;;;;3.70;3.28;;;;;;;38.90;22.13;99770.78;6184707;23;20049;-86
2022/06/05 07:33:49;;;;;;;4.25;3.65;;;;;;;36.05;23.47;99770.41;6186260;23;20099;-82
2022/06/05 07:36:20;;;;;;;3.75;3.13;;;;;;;34.04;26.02;99781.09;6125329;23;20024;-84
2022/06/05 07:38:47;;;;;;;4.07;3.20;;;;;;;32.74;27.00;99779.34;6098844;23;20041;-78
2022/06/05 07:41:21;;;;;;;5.70;4.05;;;;;;;31.19;27.80;99690.66;6140433;23;20044;-76
2022/06/05 07:44:00;;;;;;;6.13;3.40;;;;;;;30.61;28.63;99756.16;6182595;23;20017;-79
2022/06/05 07:49:32;;;;;;;6.13;4.78;;;;;;;28.48;31.74;99796.25;6156404;23;20363;-82
2022/06/05 07:55:21;;;;;;;15.68;12.57;;;;;;;26.15;33.56;99739.72;6182714;23;20021;-79
2022/06/05 07:58:18;;;;;;;5.40;3.20;;;;;;;25.08;34.85;99722.59;6157229;23;20461;-78
2022/06/05 08:01:14;;;;;;;7.65;6.40;;;;;;;24.92;36.54;99784.88;6183942;23;20017;-77
2022/06/05 08:03:55;;;;;;;6.30;3.63;;;;;;;27.19;35.76;99744.31;6156504;23;20028;-80
2022/06/05 08:10:21;;;;;;;3.60;3.30;;;;;;;34.31;28.05;99719.69;6182450;23;20024;-81
2022/06/05 08:13:00;;;;;;;5.70;3.13;;;;;;;36.19;26.33;99739.84;6185077;23;20482;-81
2022/06/05 08:15:43;;;;;;;13.98;12.10;;;;;;;37.13;24.77;99771.09;6189411;23;20021;-82
2022/06/05 08:18:15;;;;;;;11.73;9.35;;;;;;;37.22;23.45;99718.41;6186682;23;20691;-79
2022/06/05 08:20:49;;;;;;;7.03;6.32;;;;;;;38.40;22.97;99703.75;6159184;23;20017;-80
2022/06/05 08:23:18;;;;;;;6.18;2.85;;;;;;;39.56;21.42;99695.94;6135130;23;20086;-81
2022/06/05 08:25:47;;;;;;;7.07;6.38;;;;;;;40.95;20.50;99765.25;6186573;23;20079;-81
2022/06/05 08:28:13;;;;;;;5.75;4.97;;;;;;;41.42;20.06;99778.75;6159604;23;20044;-80
2022/06/05 08:30:39;;;;;;;3.90;3.20;;;;;;;40.41;19.11;99778.97;6183790;23;20064;-81
2022/06/05 08:33:05;;;;;;;6.10;5.53;;;;;;;38.42;20.42;99747.84;6159249;23;20048;-83
2022/06/05 08:36:30;;;;;;;6.45;5.85;;;;;;;36.13;21.26;99710.78;6186390;23;20366;-80
2022/06/05 08:42:35;;;;;;;;;;;;;;;32.86;24.84;99780.81;6191704;23;20108;-81
2022/06/05 08:46:00;;;;;;;8.15;7.35;;;;;;;31.22;26.32;99711.00;6194165;23;19995;-82
2022/06/05 08:48:43;;;;;;;5.97;4.72;;;;;;;30.42;27.11;99740.88;6132400;23;20251;-81
2022/06/05 08:51:46;;;;;;;7.10;5.93;;;;;;;29.89;27.75;99788.59;6149781;23;20513;-83
2022/06/05 08:54:21;;;;;;;12.18;8.65;;;;;;;29.19;28.53;99769.75;6195599;23;20067;-81
2022/06/05 09:01:35;;;;;;;4.80;2.80;;;;;;;30.25;28.20;99775.50;6107299;23;20022;-81
2022/06/05 09:04:29;;;;;;;4.68;3.00;;;;;;;29.28;28.33;99707.31;6045886;23;20156;-80
2022/06/05 09:07:43;;;;;;;3.72;2.50;;;;;;;29.23;29.09;99774.72;6114655;23;20021;-79
2022/06/05 09:14:20;;;;;;;2.83;1.83;;;;;;;27.87;30.44;99656.00;6187798;23;20096;-81
2022/06/05 09:17:27;;;;;;;2.95;1.80;;;;;;;28.84;30.22;99775.38;6101955;23;20017;-81
2022/06/05 09:21:07;;;;;;;2.22;1.60;;;;;;;31.13;28.39;99710.03;6071973;23;20509;-83
2022/06/05 09:24:20;;;;;;;2.70;1.40;;;;;;;33.58;26.23;99760.75;6051518;23;20022;-85
2022/06/05 09:27:16;;;;;;;2.80;1.35;;;;;;;33.06;25.31;99705.13;6073848;23;20021;-80
2022/06/05 09:30:04;;;;;;;2.65;1.27;;;;;;;31.82;25.75;99771.47;5993971;23;20020;-84
2022/06/05 09:33:44;;;;;;;1.75;1.40;;;;;;;29.64;27.53;99785.44;6102377;23;20128;-83
2022/06/05 09:36:26;;;;;;;3.65;1.30;;;;;;;27.44;29.02;99664.88;6006088;23;20395;-83
2022/06/05 09:42:40;;;;;;;1.35;1.25;;;;;;;26.12;31.16;99790.63;6083589;23;20073;-85
2022/06/05 09:46:09;;;;;;;1.98;1.42;;;;;;;25.58;31.83;99807.00;6109255;23;20032;-83
2022/06/05 09:49:49;;;;;;;1.88;1.30;;;;;;;25.16;32.59;99812.56;6071076;23;20041;-82
2022/06/05 09:52:34;;;;;;;1.92;1.40;;;;;;;24.34;33.06;99691.28;6138011;23;20069;-81
2022/06/05 09:56:05;;;;;;;3.13;1.33;;;;;;;25.28;33.59;99798.38;6090661;23;20018;-78
2022/06/05 10:03:35;;;;;;;;;;;;;;;;;;;;;
2022/06/05 10:07:56;;;;;;;2.50;1.42;;;;;;;26.36;32.41;99789.78;5957721;24;20169;-80
2022/06/05 10:10:48;;;;;;;3.88;1.30;;;;;;;26.37;32.56;99787.94;5957340;23;20027;-79
2022/06/05 10:17:20;;;;;;;2.53;1.50;;;;;;;25.33;34.12;99790.94;6180432;23;20029;-81
2022/06/05 10:20:12;;;;;;;9.23;2.42;;;;;;;24.73;35.54;99787.94;6192823;23;20025;-81
2022/06/05 10:22:43;;;;;;;4.15;2.38;;;;;;;24.41;36.12;99806.03;6186072;23;20028;-76
2022/06/05 10:25:39;;;;;;;5.13;2.53;;;;;;;23.85;36.89;99807.84;6157858;23;20565;-78
2022/06/05 10:28:20;;;;;;;11.57;4.80;;;;;;;23.21;37.58;99738.41;6157714;23;20021;-78
2022/06/05 10:31:14;;;;;;;7.47;3.45;;;;;;;23.39;37.63;99802.81;6182968;23;20021;-78
2022/06/05 10:34:08;;;;;;;3.47;2.65;;;;;;;22.88;38.21;99796.13;6183889;23;20030;-80
2022/06/05 10:37:29;;;;;;;30.38;22.02;;;;;;;22.57;38.06;99811.19;6184693;23;20489;-77
2022/06/05 10:39:58;;;;;;;3.53;2.83;;;;;;;22.36;39.01;99802.69;6157286;23;20459;-76
2022/06/05 10:43:01;;;;;;;9.95;6.63;;;;;;;22.18;38.98;99805.44;6157390;23;20037;-78
2022/06/05 10:45:59;;;;;;;3.05;2.22;;;;;;;22.00;39.47;99806.47;6132541;23;20153;-78
2022/06/05 10:48:44;;;;;;;2.47;1.63;;;;;;;22.21;39.32;99804.41;6184040;23;20068;-78
2022/06/05 10:51:48;;;;;;;3.38;2.00;;;;;;;22.64;39.47;99794.00;6109474;23;20020;-82
2022/06/05 10:54:14;;;;;;;2.80;1.42;;;;;;;22.86;38.99;99800.66;6133314;23;20090;-80
2022/06/05 10:57:10;;;;;;;2.50;1.70;;;;;;;22.48;38.74;99758.72;6142348;23;20020;-80
2022/06/05 11:00:00;;;;;;;3.58;1.30;;;;;;;22.45;38.90;99791.56;6190989;23;20017;-77
2022/06/05 11:03:11;;;;;;;1.55;1.45;;;;;;;22.42;39.29;99791.69;6191844;23;20048;-78
2022/06/05 11:05:56;;;;;;;14.18;11.02;;;;;;;22.43;40.24;99793.44;6155060;23;20016;-79
2022/06/05 11:08:34;;;;;;;4.78;3.55;;;;;;;22.33;39.70;99798.41;6140961;23;20024;-79
2022/06/05 11:14:29;;;;;;;3.05;2.63;;;;;;;22.08;40.77;99793.66;6142779;23;20502;-82
2022/06/05 11:17:03;;;;;;;2.55;1.73;;;;;;;22.01;40.62;99789.66;6142006;23;19998;-80
2022/06/05 11:19:48;;;;;;;3.33;2.00;;;;;;;21.52;40.83;99744.63;6116199;23;20033;-80
2022/06/05 11:22:29;;;;;;;4.05;1.73;;;;;;;21.67;41.07;99785.31;6146276;23;20005;-81
2022/06/05 11:25:22;;;;;;;5.50;4.18;;;;;;;21.29;41.15;99748.56;6148606;23;20104;-78
2022/06/05 11:28:18;;;;;;;15.05;10.30;;;;;;;21.44;41.53;99783.03;6136961;23;20022;-80
2022/06/05 11:35:48;;;;;;;;;;;;;;;;;;;;;
2022/06/05 11:39:02;;;;;;;2.00;1.60;;;;;;;21.63;40.94;99778.47;6138080;23;20058;-80
2022/06/05 11:45:53;;;;;;;11.75;8.32;;;;;;;21.62;41.79;99778.56;6098121;23;20113;-80
2022/06/05 11:52:47;;;;;;;;;;;;;;;;;;;;;
2022/06/05 11:56:07;;;;;;;1.98;1.33;;;;;;;21.52;41.26;99768.44;6139293;23;20092;-79
2022/06/05 11:59:33;;;;;;;3.88;1.60;;;;;;;21.63;41.27;99765.25;6141553;23;20025;-82
2022/06/05 12:05:51;;;;;;;3.10;1.10;;;;;;;22.34;40.56;99767.47;6102206;23;20351;-82
2022/06/05 12:08:57;;;;;;;7.32;5.53;;;;;;;22.55;39.72;99755.63;6085585;23;20025;-79
2022/06/05 12:12:13;;;;;;;3.13;2.22;;;;;;;22.54;39.25;99748.63;6173882;23;20032;-80
2022/06/05 12:15:20;;;;;;;3.42;2.25;;;;;;;22.40;39.55;99756.47;6152086;23;20000;-85
2022/06/05 12:18:02;;;;;;;3.20;2.38;;;;;;;22.41;40.07;99750.22;6205591;23;20013;-83
2022/06/05 12:20:34;;;;;;;4.85;3.25;;;;;;;22.52;39.96;99753.16;6150145;23;20089;-79
2022/06/05 12:23:19;;;;;;;1.88;1.58;;;;;;;22.38;39.70;99731.88;6172032;23;20056;-81
2022/06/05 12:26:02;;;;;;;2.67;1.60;;;;;;;21.75;39.28;99655.16;6201588;23;20008;-78
2022/06/05 12:29:02;;;;;;;;;;;;;;;;;;;;;
2022/06/05 12:31:58;;;;;;;3.70;1.20;;;;;;;21.09;40.25;99674.69;6202828;23;20361;-81
2022/06/05 12:34:44;;;;;;;2.67;1.30;;;;;;;21.33;40.57;99728.06;6199409;23;20044;-80
2022/06/05 12:37:55;;;;;;;1.60;1.50;;;;;;;21.47;40.55;99757.25;6201740;23;20019;-80
2022/06/05 12:40:37;;;;;;;2.38;1.48;;;;;;;20.94;40.57;99689.63;6130346;23;20068;-80
2022/06/05 12:47:35;;;;;;;1.88;1.50;;;;;;;21.06;40.99;99753.28;6152102;23;20033;-82
2022/06/05 13:03:30;;;;;;;;;;;;;;;;;;;;;
2022/06/05 13:07:13;;;;;;;6.40;1.67;;;;;;;20.27;41.27;99743.22;6034844;23;20037;-81
2022/06/05 13:10:38;;;;;;;4.45;1.60;;;;;;;20.24;41.46;99746.00;6049340;23;20078;-80
2022/06/05 13:13:23;;;;;;;4.05;1.80;;;;;;;20.14;41.87;99722.72;6197008;23;20015;-79
2022/06/05 13:17:00;;;;;;;;;;;;;;;;;;;;;
2022/06/05 13:43:23;;;;;;;10.88;7.05;;;;;;;19.54;42.33;99670.16;6264857;23;20084;-80
2022/06/05 13:46:21;;;;;;;9.52;6.22;;;;;;;20.08;42.52;99735.38;6271771;23;20020;-81
2022/06/05 13:54:59;;;;;;;5.80;3.47;;;;;;;20.76;41.84;99727.53;6260153;22;20000;-82
2022/06/05 13:58:05;;;;;;;5.00;3.15;;;;;;;20.98;41.50;99728.16;6203117;23;20004;-80
2022/06/05 14:00:58;;;;;;;38.03;19.73;;;;;;;20.99;41.35;99735.16;6185499;23;20016;-79
2022/06/05 14:03:52;;;;;;;9.57;3.70;;;;;;;20.90;41.42;99734.72;6228295;23;20363;-81
2022/06/05 14:06:59;;;;;;;4.75;3.03;;;;;;;20.79;41.82;99737.06;6207883;23;20011;-81
2022/06/05 14:19:38;;;;;;;5.57;2.53;;;;;;;20.12;43.32;99745.69;6244889;22;20015;-80
2022/06/05 14:22:11;;;;;;;6.45;2.55;;;;;;;19.90;43.77;99751.16;6242217;23;20015;-79
2022/06/05 14:24:44;;;;;;;7.03;2.33;;;;;;;19.27;44.39;99675.81;6180619;23;20093;-78
2022/06/05 14:27:35;;;;;;;4.07;2.45;;;;;;;19.34;44.54;99721.22;6182896;23;20020;-81
2022/06/05 14:34:05;;;;;;;4.43;2.47;;;;;;;19.54;45.14;99728.22;6265500;23;20008;-78
2022/06/05 14:36:49;;;;;;;8.45;2.28;;;;;;;19.58;45.27;99711.31;6216775;23;20441;-78
2022/06/05 14:39:44;;;;;;;2.72;2.38;;;;;;;19.86;45.33;99750.44;6214456;23;20008;-78
2022/06/05 14:42:42;;;;;;;6.70;3.63;;;;;;;19.54;45.41;99686.00;6213143;23;20026;-78